M\t T.gonul — TCTP9 — position and weather

sailwx.info

Track history (hours):
 
Tides and Currents Weather Stations Pressure Air Temp Water Temp Dewpoint Dewpoint Depression Visibility Wind Speed Wind Dir Waves Ship Positions

M\t T.gonul

Last reported at 2017-Nov-12 08:27 UTC. Time now 2017-Nov-19 10:48 UTC.
Position N 37°36' E 025°53'.

Length 132 m; draft 6 m.

Type: Ship (hazmat cat A). MMSI: 271002726.

Date/timePositionNaut miles runAvg speedWind from/ knotsBaromVisibWave heightAir tempDewpointWater temp
2017-Nov-12 08:27N 37°36' E 025°53'612.9
2017-Nov-12 08:00N 37°31' E 025°55'23111.5
2017-Nov-11 11:53N 36°08' E 030°25'512.1
2017-Nov-11 11:30N 36°10' E 030°30'713.1
2017-Nov-11 11:00N 36°15' E 030°34'713.0
2017-Nov-11 10:31N 36°22' E 030°36'712.9
2017-Nov-11 10:00N 36°28' E 030°37'612.4
2017-Nov-11 09:30N 36°34' E 030°38'612.0
2017-Nov-11 09:01N 36°40' E 030°38'5 9.7
2017-Nov-11 08:30N 36°45' E 030°38'1 2.2
2017-Nov-11 08:00N 36°46' E 030°37'2 4.6
2017-Nov-11 07:29N 36°48' E 030°36'0 0.1
2017-Nov-11 06:59N 36°48' E 030°36'0 0.0
2017-Nov-11 06:29N 36°48' E 030°36'0 0.0
2017-Nov-11 05:59N 36°48' E 030°36'0 0.0
2017-Nov-11 05:29N 36°48' E 030°36'0 0.0
2017-Nov-11 04:59N 36°48' E 030°36'0 0.0
2017-Nov-11 04:29N 36°48' E 030°36'0 0.0
2017-Nov-11 03:59N 36°48' E 030°36'0 0.0
2017-Nov-11 03:29N 36°48' E 030°36'0 0.0
2017-Nov-11 02:59N 36°48' E 030°36'0 0.0
2017-Nov-11 02:29N 36°48' E 030°36'0 0.0
2017-Nov-11 01:59N 36°48' E 030°36'0 0.0
2017-Nov-11 01:29N 36°48' E 030°36'0 0.0
2017-Nov-11 00:59N 36°48' E 030°36'0 0.0
2017-Nov-11 00:29N 36°48' E 030°36'0 0.0
2017-Nov-10 23:59N 36°48' E 030°36'0 0.0
2017-Nov-10 23:29N 36°48' E 030°36'0 0.0
2017-Nov-10 22:59N 36°48' E 030°36'0 0.0
2017-Nov-10 22:29N 36°48' E 030°36'0 0.0
2017-Nov-10 21:59N 36°48' E 030°36'0 0.0
2017-Nov-10 21:29N 36°48' E 030°36'0 0.0
2017-Nov-10 20:59N 36°48' E 030°36'0 0.0
2017-Nov-10 20:29N 36°48' E 030°36'0 0.0
2017-Nov-10 19:59N 36°48' E 030°36'0 0.0
2017-Nov-10 19:29N 36°48' E 030°36'0 0.0
2017-Nov-10 18:59N 36°48' E 030°36'0 0.0
2017-Nov-10 18:29N 36°48' E 030°36'0 0.0
2017-Nov-10 17:59N 36°48' E 030°36'0 0.0
2017-Nov-10 17:29N 36°48' E 030°36'0 0.0
2017-Nov-10 16:59N 36°48' E 030°36'0 0.0
2017-Nov-10 16:29N 36°48' E 030°36'0 0.0
2017-Nov-10 15:59N 36°48' E 030°36'0 0.0
2017-Nov-10 15:29N 36°48' E 030°36'0 0.0
2017-Nov-10 14:59N 36°48' E 030°36'0 0.0
2017-Nov-10 14:29N 36°48' E 030°36'0 0.0
2017-Nov-10 13:59N 36°48' E 030°36'0 0.0
2017-Nov-10 13:29N 36°48' E 030°36'0 0.0
2017-Nov-10 12:59N 36°48' E 030°36'0 0.0
2017-Nov-10 12:29N 36°48' E 030°36'0 0.0
2017-Nov-10 11:59N 36°48' E 030°36'0 0.0
2017-Nov-10 11:29N 36°48' E 030°36'0 0.0
2017-Nov-10 10:59N 36°48' E 030°36'0 0.0
2017-Nov-10 10:23N 36°48' E 030°36'0 0.0
2017-Nov-10 09:59N 36°48' E 030°36'0 0.0
2017-Nov-10 09:29N 36°48' E 030°36'0 0.0
2017-Nov-10 08:59N 36°48' E 030°36'0 0.0
2017-Nov-10 08:29N 36°48' E 030°36'0 0.0
2017-Nov-10 07:59N 36°48' E 030°36'0 0.0
2017-Nov-10 07:29N 36°48' E 030°36'0 0.0
2017-Nov-10 06:59N 36°48' E 030°36'0 0.0
2017-Nov-10 06:29N 36°48' E 030°36'0 0.0
2017-Nov-10 06:00N 36°48' E 030°36'1 1.9
2017-Nov-10 05:30N 36°48' E 030°37'3 6.1
2017-Nov-10 05:01N 36°47' E 030°40'510.7
2017-Nov-10 04:30N 36°44' E 030°46'511.0
2017-Nov-10 04:00N 36°42' E 030°52'611.3
2017-Nov-10 03:30N 36°39' E 030°58'611.4
2017-Nov-10 03:01N 36°36' E 031°04'611.1
2017-Nov-10 02:30N 36°34' E 031°11'  
2017-Nov-07 03:33N 35°60' E 030°25'0 9.6
2017-Nov-07 03:30N 35°60' E 030°25'234 9.3
2017-Nov-06 02:30N 37°27' E 025°54'5 9.4
2017-Nov-06 02:00N 37°32' E 025°52'5 9.9
2017-Nov-06 01:30N 37°37' E 025°51'  
2017-Nov-02 17:36N 37°36' E 025°54'110.5
2017-Nov-02 17:29N 37°35' E 025°54'510.6
2017-Nov-02 17:00N 37°30' E 025°55'  
Track history (hours):
 
Tides and Currents Weather Stations Pressure Air Temp Water Temp Dewpoint Dewpoint Depression Visibility Wind Speed Wind Dir Waves Ship Positions

M\t T.gonul

Last reported at 2017-Nov-12 08:27 UTC. Time now 2017-Nov-19 10:48 UTC.
Position N 37°36' E 025°53'.

Length 132 m; draft 6 m.

Type: Ship (hazmat cat A). MMSI: 271002726.

Date/timePositionNaut miles runAvg speedWind from/ knotsBaromVisibWave heightAir tempDewpointWater temp
2017-Nov-12 08:27N 37°36' E 025°53'612.9
2017-Nov-12 08:00N 37°31' E 025°55'23111.5
2017-Nov-11 11:53N 36°08' E 030°25'512.1
2017-Nov-11 11:30N 36°10' E 030°30'713.1
2017-Nov-11 11:00N 36°15' E 030°34'713.0
2017-Nov-11 10:31N 36°22' E 030°36'712.9
2017-Nov-11 10:00N 36°28' E 030°37'612.4
2017-Nov-11 09:30N 36°34' E 030°38'612.0
2017-Nov-11 09:01N 36°40' E 030°38'5 9.7
2017-Nov-11 08:30N 36°45' E 030°38'1 2.2
2017-Nov-11 08:00N 36°46' E 030°37'2 4.6
2017-Nov-11 07:29N 36°48' E 030°36'0 0.1
2017-Nov-11 06:59N 36°48' E 030°36'0 0.0
2017-Nov-11 06:29N 36°48' E 030°36'0 0.0
2017-Nov-11 05:59N 36°48' E 030°36'0 0.0
2017-Nov-11 05:29N 36°48' E 030°36'0 0.0
2017-Nov-11 04:59N 36°48' E 030°36'0 0.0
2017-Nov-11 04:29N 36°48' E 030°36'0 0.0
2017-Nov-11 03:59N 36°48' E 030°36'0 0.0
2017-Nov-11 03:29N 36°48' E 030°36'0 0.0
2017-Nov-11 02:59N 36°48' E 030°36'0 0.0
2017-Nov-11 02:29N 36°48' E 030°36'0 0.0
2017-Nov-11 01:59N 36°48' E 030°36'0 0.0
2017-Nov-11 01:29N 36°48' E 030°36'0 0.0
2017-Nov-11 00:59N 36°48' E 030°36'0 0.0
2017-Nov-11 00:29N 36°48' E 030°36'0 0.0
2017-Nov-10 23:59N 36°48' E 030°36'0 0.0
2017-Nov-10 23:29N 36°48' E 030°36'0 0.0
2017-Nov-10 22:59N 36°48' E 030°36'0 0.0
2017-Nov-10 22:29N 36°48' E 030°36'0 0.0
2017-Nov-10 21:59N 36°48' E 030°36'0 0.0
2017-Nov-10 21:29N 36°48' E 030°36'0 0.0
2017-Nov-10 20:59N 36°48' E 030°36'0 0.0
2017-Nov-10 20:29N 36°48' E 030°36'0 0.0
2017-Nov-10 19:59N 36°48' E 030°36'0 0.0
2017-Nov-10 19:29N 36°48' E 030°36'0 0.0
2017-Nov-10 18:59N 36°48' E 030°36'0 0.0
2017-Nov-10 18:29N 36°48' E 030°36'0 0.0
2017-Nov-10 17:59N 36°48' E 030°36'0 0.0
2017-Nov-10 17:29N 36°48' E 030°36'0 0.0
2017-Nov-10 16:59N 36°48' E 030°36'0 0.0
2017-Nov-10 16:29N 36°48' E 030°36'0 0.0
2017-Nov-10 15:59N 36°48' E 030°36'0 0.0
2017-Nov-10 15:29N 36°48' E 030°36'0 0.0
2017-Nov-10 14:59N 36°48' E 030°36'0 0.0
2017-Nov-10 14:29N 36°48' E 030°36'0 0.0
2017-Nov-10 13:59N 36°48' E 030°36'0 0.0
2017-Nov-10 13:29N 36°48' E 030°36'0 0.0
2017-Nov-10 12:59N 36°48' E 030°36'0 0.0
2017-Nov-10 12:29N 36°48' E 030°36'0 0.0
2017-Nov-10 11:59N 36°48' E 030°36'0 0.0
2017-Nov-10 11:29N 36°48' E 030°36'0 0.0
2017-Nov-10 10:59N 36°48' E 030°36'0 0.0
2017-Nov-10 10:23N 36°48' E 030°36'0 0.0
2017-Nov-10 09:59N 36°48' E 030°36'0 0.0
2017-Nov-10 09:29N 36°48' E 030°36'0 0.0
2017-Nov-10 08:59N 36°48' E 030°36'0 0.0
2017-Nov-10 08:29N 36°48' E 030°36'0 0.0
2017-Nov-10 07:59N 36°48' E 030°36'0 0.0
2017-Nov-10 07:29N 36°48' E 030°36'0 0.0
2017-Nov-10 06:59N 36°48' E 030°36'0 0.0
2017-Nov-10 06:29N 36°48' E 030°36'0 0.0
2017-Nov-10 06:00N 36°48' E 030°36'1 1.9
2017-Nov-10 05:30N 36°48' E 030°37'3 6.1
2017-Nov-10 05:01N 36°47' E 030°40'510.7
2017-Nov-10 04:30N 36°44' E 030°46'511.0
2017-Nov-10 04:00N 36°42' E 030°52'611.3
2017-Nov-10 03:30N 36°39' E 030°58'611.4
2017-Nov-10 03:01N 36°36' E 031°04'611.1
2017-Nov-10 02:30N 36°34' E 031°11'  
2017-Nov-07 03:33N 35°60' E 030°25'0 9.6
2017-Nov-07 03:30N 35°60' E 030°25'234 9.3
2017-Nov-06 02:30N 37°27' E 025°54'5 9.4
2017-Nov-06 02:00N 37°32' E 025°52'5 9.9
2017-Nov-06 01:30N 37°37' E 025°51'  
2017-Nov-02 17:36N 37°36' E 025°54'110.5
2017-Nov-02 17:29N 37°35' E 025°54'510.6
2017-Nov-02 17:00N 37°30' E 025°55'  

Dump ship's entire track history